sensor_id;sensor_type;location;lat;lon;timestamp;P1;durP1;ratioP1;P2;durP2;ratioP2
22648;SDS011;11491;41.942;24.220;2023-05-10T00:01:01;57.17;;;9.30;;
22648;SDS011;11491;41.942;24.220;2023-05-10T00:03:27;53.92;;;8.80;;
22648;SDS011;11491;41.942;24.220;2023-05-10T00:05:54;44.13;;;7.00;;
22648;SDS011;11491;41.942;24.220;2023-05-10T00:08:21;42.53;;;7.38;;
22648;SDS011;11491;41.942;24.220;2023-05-10T00:10:48;60.40;;;11.73;;
22648;SDS011;11491;41.942;24.220;2023-05-10T00:13:18;141.68;;;13.65;;
22648;SDS011;11491;41.942;24.220;2023-05-10T00:15:44;44.47;;;9.52;;
22648;SDS011;11491;41.942;24.220;2023-05-10T00:18:11;281.38;;;22.08;;
22648;SDS011;11491;41.942;24.220;2023-05-10T00:20:38;92.88;;;9.70;;
22648;SDS011;11491;41.942;24.220;2023-05-10T00:23:05;80.40;;;9.43;;
22648;SDS011;11491;41.942;24.220;2023-05-10T00:25:31;47.28;;;9.48;;
22648;SDS011;11491;41.942;24.220;2023-05-10T00:27:58;43.05;;;10.15;;
22648;SDS011;11491;41.942;24.220;2023-05-10T00:30:27;38.75;;;9.77;;
22648;SDS011;11491;41.942;24.220;2023-05-10T00:32:54;64.00;;;10.73;;
22648;SDS011;11491;41.942;24.220;2023-05-10T00:35:21;137.52;;;12.85;;
22648;SDS011;11491;41.942;24.220;2023-05-10T00:37:48;284.67;;;20.00;;
22648;SDS011;11491;41.942;24.220;2023-05-10T00:40:14;124.45;;;12.50;;
22648;SDS011;11491;41.942;24.220;2023-05-10T00:42:41;58.97;;;9.75;;
22648;SDS011;11491;41.942;24.220;2023-05-10T00:45:08;331.73;;;24.52;;
22648;SDS011;11491;41.942;24.220;2023-05-10T00:47:36;237.48;;;19.98;;
22648;SDS011;11491;41.942;24.220;2023-05-10T00:50:04;481.50;;;31.60;;
22648;SDS011;11491;41.942;24.220;2023-05-10T00:52:32;126.90;;;13.48;;
22648;SDS011;11491;41.942;24.220;2023-05-10T00:54:58;83.30;;;12.77;;
22648;SDS011;11491;41.942;24.220;2023-05-10T00:57:26;328.83;;;22.15;;
22648;SDS011;11491;41.942;24.220;2023-05-10T00:59:53;565.42;;;35.55;;
22648;SDS011;11491;41.942;24.220;2023-05-10T01:02:20;561.97;;;35.15;;
22648;SDS011;11491;41.942;24.220;2023-05-10T01:04:48;69.75;;;10.23;;
22648;SDS011;11491;41.942;24.220;2023-05-10T01:07:15;59.65;;;9.65;;
22648;SDS011;11491;41.942;24.220;2023-05-10T01:09:42;48.40;;;8.55;;
22648;SDS011;11491;41.942;24.220;2023-05-10T01:12:09;72.13;;;10.23;;
22648;SDS011;11491;41.942;24.220;2023-05-10T01:14:35;30.80;;;10.98;;
22648;SDS011;11491;41.942;24.220;2023-05-10T01:17:03;79.22;;;11.70;;
22648;SDS011;11491;41.942;24.220;2023-05-10T01:19:31;284.48;;;21.08;;
22648;SDS011;11491;41.942;24.220;2023-05-10T01:22:06;325.02;;;26.55;;
22648;SDS011;11491;41.942;24.220;2023-05-10T01:30:46;528.63;;;34.63;;
22648;SDS011;11491;41.942;24.220;2023-05-10T01:33:31;485.35;;;35.85;;
22648;SDS011;11491;41.942;24.220;2023-05-10T01:36:03;306.07;;;25.63;;
22648;SDS011;11491;41.942;24.220;2023-05-10T01:38:38;243.15;;;18.60;;
22648;SDS011;11491;41.942;24.220;2023-05-10T01:41:12;818.42;;;55.15;;
22648;SDS011;11491;41.942;24.220;2023-05-10T01:43:45;576.08;;;38.35;;
22648;SDS011;11491;41.942;24.220;2023-05-10T01:46:20;667.03;;;44.45;;
22648;SDS011;11491;41.942;24.220;2023-05-10T01:48:54;768.92;;;51.72;;
22648;SDS011;11491;41.942;24.220;2023-05-10T01:51:23;775.50;;;52.38;;
22648;SDS011;11491;41.942;24.220;2023-05-10T01:53:54;796.70;;;62.90;;
22648;SDS011;11491;41.942;24.220;2023-05-10T01:56:27;818.28;;;58.20;;
22648;SDS011;11491;41.942;24.220;2023-05-10T01:58:55;569.42;;;48.92;;
22648;SDS011;11491;41.942;24.220;2023-05-10T02:01:23;1114.53;;;79.95;;
22648;SDS011;11491;41.942;24.220;2023-05-10T02:03:53;713.10;;;55.55;;
22648;SDS011;11491;41.942;24.220;2023-05-10T02:06:21;502.95;;;42.38;;
22648;SDS011;11491;41.942;24.220;2023-05-10T02:08:50;660.78;;;52.50;;
22648;SDS011;11491;41.942;24.220;2023-05-10T02:11:18;711.63;;;60.28;;
22648;SDS011;11491;41.942;24.220;2023-05-10T02:13:47;395.67;;;33.92;;
22648;SDS011;11491;41.942;24.220;2023-05-10T02:16:16;479.58;;;40.83;;
22648;SDS011;11491;41.942;24.220;2023-05-10T02:18:45;420.13;;;28.38;;
22648;SDS011;11491;41.942;24.220;2023-05-10T02:21:15;698.05;;;46.00;;
22648;SDS011;11491;41.942;24.220;2023-05-10T02:23:43;567.65;;;38.72;;
22648;SDS011;11491;41.942;24.220;2023-05-10T02:26:11;641.70;;;43.70;;
22648;SDS011;11491;41.942;24.220;2023-05-10T02:28:40;517.58;;;40.47;;
22648;SDS011;11491;41.942;24.220;2023-05-10T02:31:08;701.05;;;50.03;;
22648;SDS011;11491;41.942;24.220;2023-05-10T02:33:36;476.55;;;40.83;;
22648;SDS011;11491;41.942;24.220;2023-05-10T02:36:06;392.48;;;47.45;;
22648;SDS011;11491;41.942;24.220;2023-05-10T02:38:36;178.25;;;35.25;;
22648;SDS011;11491;41.942;24.220;2023-05-10T02:41:03;581.80;;;55.45;;
22648;SDS011;11491;41.942;24.220;2023-05-10T02:43:32;768.85;;;63.90;;
22648;SDS011;11491;41.942;24.220;2023-05-10T02:45:59;641.15;;;49.65;;
22648;SDS011;11491;41.942;24.220;2023-05-10T02:48:26;405.73;;;38.63;;
22648;SDS011;11491;41.942;24.220;2023-05-10T02:50:54;400.45;;;42.97;;
22648;SDS011;11491;41.942;24.220;2023-05-10T02:53:30;674.78;;;52.75;;
22648;SDS011;11491;41.942;24.220;2023-05-10T02:56:00;591.53;;;51.70;;
22648;SDS011;11491;41.942;24.220;2023-05-10T02:58:32;446.63;;;37.25;;
22648;SDS011;11491;41.942;24.220;2023-05-10T03:00:59;269.15;;;37.55;;
22648;SDS011;11491;41.942;24.220;2023-05-10T03:03:26;836.92;;;85.03;;
22648;SDS011;11491;41.942;24.220;2023-05-10T03:05:52;854.67;;;68.20;;
22648;SDS011;11491;41.942;24.220;2023-05-10T03:08:20;317.58;;;45.80;;
22648;SDS011;11491;41.942;24.220;2023-05-10T03:10:51;309.00;;;27.08;;
22648;SDS011;11491;41.942;24.220;2023-05-10T03:13:35;69.85;;;27.98;;
22648;SDS011;11491;41.942;24.220;2023-05-10T03:16:08;155.68;;;26.23;;
22648;SDS011;11491;41.942;24.220;2023-05-10T03:18:41;300.20;;;42.45;;
22648;SDS011;11491;41.942;24.220;2023-05-10T03:21:11;412.95;;;29.83;;
22648;SDS011;11491;41.942;24.220;2023-05-10T03:23:41;359.92;;;38.35;;
22648;SDS011;11491;41.942;24.220;2023-05-10T03:26:11;238.07;;;26.75;;
22648;SDS011;11491;41.942;24.220;2023-05-10T03:28:48;219.20;;;25.15;;
22648;SDS011;11491;41.942;24.220;2023-05-10T03:31:16;47.80;;;20.67;;
22648;SDS011;11491;41.942;24.220;2023-05-10T03:33:46;170.82;;;26.33;;
22648;SDS011;11491;41.942;24.220;2023-05-10T03:36:14;214.65;;;21.38;;
22648;SDS011;11491;41.942;24.220;2023-05-10T03:38:41;189.02;;;26.02;;
22648;SDS011;11491;41.942;24.220;2023-05-10T03:41:08;74.15;;;22.98;;
22648;SDS011;11491;41.942;24.220;2023-05-10T03:43:34;111.43;;;29.00;;
22648;SDS011;11491;41.942;24.220;2023-05-10T03:46:03;79.57;;;17.92;;
22648;SDS011;11491;41.942;24.220;2023-05-10T03:48:32;116.85;;;34.25;;
22648;SDS011;11491;41.942;24.220;2023-05-10T03:50:59;392.33;;;34.42;;
22648;SDS011;11491;41.942;24.220;2023-05-10T03:53:27;57.92;;;15.45;;
22648;SDS011;11491;41.942;24.220;2023-05-10T03:55:54;44.10;;;16.67;;
22648;SDS011;11491;41.942;24.220;2023-05-10T03:58:20;117.32;;;29.35;;
22648;SDS011;11491;41.942;24.220;2023-05-10T04:00:47;144.00;;;32.03;;
22648;SDS011;11491;41.942;24.220;2023-05-10T04:03:15;106.85;;;23.60;;
22648;SDS011;11491;41.942;24.220;2023-05-10T04:05:42;98.70;;;27.75;;
22648;SDS011;11491;41.942;24.220;2023-05-10T04:08:09;214.32;;;32.65;;
22648;SDS011;11491;41.942;24.220;2023-05-10T04:10:36;280.35;;;39.80;;
22648;SDS011;11491;41.942;24.220;2023-05-10T04:13:02;317.65;;;36.80;;
22648;SDS011;11491;41.942;24.220;2023-05-10T04:15:29;366.75;;;31.90;;
22648;SDS011;11491;41.942;24.220;2023-05-10T04:17:56;440.23;;;36.30;;
22648;SDS011;11491;41.942;24.220;2023-05-10T04:20:24;357.80;;;34.05;;
22648;SDS011;11491;41.942;24.220;2023-05-10T04:22:51;208.02;;;31.13;;
22648;SDS011;11491;41.942;24.220;2023-05-10T04:25:17;140.18;;;28.85;;
22648;SDS011;11491;41.942;24.220;2023-05-10T04:27:44;166.40;;;25.20;;
22648;SDS011;11491;41.942;24.220;2023-05-10T04:30:11;130.32;;;27.38;;
22648;SDS011;11491;41.942;24.220;2023-05-10T04:32:38;140.00;;;43.08;;
22648;SDS011;11491;41.942;24.220;2023-05-10T04:35:05;147.32;;;37.50;;
22648;SDS011;11491;41.942;24.220;2023-05-10T04:37:33;161.38;;;29.17;;
22648;SDS011;11491;41.942;24.220;2023-05-10T04:40:00;65.25;;;31.73;;
22648;SDS011;11491;41.942;24.220;2023-05-10T04:42:28;383.65;;;46.92;;
22648;SDS011;11491;41.942;24.220;2023-05-10T04:44:55;257.65;;;36.72;;
22648;SDS011;11491;41.942;24.220;2023-05-10T04:47:22;374.70;;;34.95;;
22648;SDS011;11491;41.942;24.220;2023-05-10T04:49:48;206.43;;;32.40;;
22648;SDS011;11491;41.942;24.220;2023-05-10T04:52:17;171.85;;;32.78;;
22648;SDS011;11491;41.942;24.220;2023-05-10T04:54:46;542.40;;;62.25;;
22648;SDS011;11491;41.942;24.220;2023-05-10T04:57:15;119.72;;;31.48;;
22648;SDS011;11491;41.942;24.220;2023-05-10T04:59:42;312.10;;;43.38;;
22648;SDS011;11491;41.942;24.220;2023-05-10T05:02:09;539.83;;;52.83;;
22648;SDS011;11491;41.942;24.220;2023-05-10T05:04:36;373.17;;;46.25;;
22648;SDS011;11491;41.942;24.220;2023-05-10T05:07:03;249.43;;;40.45;;
22648;SDS011;11491;41.942;24.220;2023-05-10T05:09:29;210.30;;;45.20;;
22648;SDS011;11491;41.942;24.220;2023-05-10T05:11:58;604.35;;;51.33;;
22648;SDS011;11491;41.942;24.220;2023-05-10T05:14:25;581.13;;;65.93;;
22648;SDS011;11491;41.942;24.220;2023-05-10T05:16:52;215.20;;;50.80;;
22648;SDS011;11491;41.942;24.220;2023-05-10T05:19:19;219.50;;;30.25;;
22648;SDS011;11491;41.942;24.220;2023-05-10T05:21:47;539.45;;;50.30;;
22648;SDS011;11491;41.942;24.220;2023-05-10T05:24:14;389.27;;;47.95;;
22648;SDS011;11491;41.942;24.220;2023-05-10T05:26:41;194.48;;;33.08;;
22648;SDS011;11491;41.942;24.220;2023-05-10T05:29:09;280.55;;;45.55;;
22648;SDS011;11491;41.942;24.220;2023-05-10T05:31:36;244.45;;;49.22;;
22648;SDS011;11491;41.942;24.220;2023-05-10T05:34:03;102.90;;;45.67;;
22648;SDS011;11491;41.942;24.220;2023-05-10T05:36:30;142.00;;;35.42;;
22648;SDS011;11491;41.942;24.220;2023-05-10T05:38:57;184.85;;;28.80;;
22648;SDS011;11491;41.942;24.220;2023-05-10T05:41:24;103.40;;;29.63;;
22648;SDS011;11491;41.942;24.220;2023-05-10T05:43:52;62.67;;;31.48;;
22648;SDS011;11491;41.942;24.220;2023-05-10T05:46:20;102.57;;;24.50;;
22648;SDS011;11491;41.942;24.220;2023-05-10T05:48:46;70.50;;;32.35;;
22648;SDS011;11491;41.942;24.220;2023-05-10T05:51:13;84.88;;;36.85;;
22648;SDS011;11491;41.942;24.220;2023-05-10T05:53:42;110.78;;;33.55;;
22648;SDS011;11491;41.942;24.220;2023-05-10T05:56:09;110.80;;;40.05;;
22648;SDS011;11491;41.942;24.220;2023-05-10T05:58:36;361.55;;;93.93;;
22648;SDS011;11491;41.942;24.220;2023-05-10T06:01:05;115.20;;;44.60;;
22648;SDS011;11491;41.942;24.220;2023-05-10T06:03:34;500.20;;;64.15;;
22648;SDS011;11491;41.942;24.220;2023-05-10T06:06:01;198.13;;;36.67;;
22648;SDS011;11491;41.942;24.220;2023-05-10T06:08:27;384.50;;;48.45;;
22648;SDS011;11491;41.942;24.220;2023-05-10T06:10:54;237.98;;;34.42;;
22648;SDS011;11491;41.942;24.220;2023-05-10T06:13:21;227.60;;;40.40;;
22648;SDS011;11491;41.942;24.220;2023-05-10T06:15:48;186.60;;;32.50;;
22648;SDS011;11491;41.942;24.220;2023-05-10T06:18:14;150.95;;;30.13;;
22648;SDS011;11491;41.942;24.220;2023-05-10T06:20:43;168.63;;;44.97;;
22648;SDS011;11491;41.942;24.220;2023-05-10T06:25:45;179.25;;;51.08;;
22648;SDS011;11491;41.942;24.220;2023-05-10T06:28:11;107.78;;;35.05;;
22648;SDS011;11491;41.942;24.220;2023-05-10T06:30:38;91.35;;;33.00;;
22648;SDS011;11491;41.942;24.220;2023-05-10T06:33:05;80.63;;;36.28;;
22648;SDS011;11491;41.942;24.220;2023-05-10T06:35:32;58.63;;;38.53;;
22648;SDS011;11491;41.942;24.220;2023-05-10T06:38:00;56.80;;;33.88;;
22648;SDS011;11491;41.942;24.220;2023-05-10T06:40:27;61.13;;;38.83;;
22648;SDS011;11491;41.942;24.220;2023-05-10T06:42:54;40.35;;;29.27;;
22648;SDS011;11491;41.942;24.220;2023-05-10T06:45:21;42.20;;;31.50;;
22648;SDS011;11491;41.942;24.220;2023-05-10T06:47:48;32.53;;;23.17;;
22648;SDS011;11491;41.942;24.220;2023-05-10T06:50:14;33.38;;;25.55;;
22648;SDS011;11491;41.942;24.220;2023-05-10T06:52:41;37.90;;;24.83;;
22648;SDS011;11491;41.942;24.220;2023-05-10T06:55:10;26.92;;;20.38;;
22648;SDS011;11491;41.942;24.220;2023-05-10T06:57:37;32.65;;;24.27;;
22648;SDS011;11491;41.942;24.220;2023-05-10T07:00:04;35.50;;;24.35;;
22648;SDS011;11491;41.942;24.220;2023-05-10T07:02:32;35.55;;;22.13;;
22648;SDS011;11491;41.942;24.220;2023-05-10T07:04:59;12.07;;;9.57;;
22648;SDS011;11491;41.942;24.220;2023-05-10T07:07:26;43.70;;;26.42;;
22648;SDS011;11491;41.942;24.220;2023-05-10T07:09:53;38.10;;;23.30;;
22648;SDS011;11491;41.942;24.220;2023-05-10T07:12:22;29.95;;;18.98;;
22648;SDS011;11491;41.942;24.220;2023-05-10T07:14:49;55.63;;;33.03;;
22648;SDS011;11491;41.942;24.220;2023-05-10T07:17:16;21.38;;;14.32;;
22648;SDS011;11491;41.942;24.220;2023-05-10T07:19:43;51.28;;;28.15;;
22648;SDS011;11491;41.942;24.220;2023-05-10T07:22:10;31.88;;;21.40;;
22648;SDS011;11491;41.942;24.220;2023-05-10T07:24:37;31.20;;;24.13;;
22648;SDS011;11491;41.942;24.220;2023-05-10T07:27:04;27.02;;;18.88;;
22648;SDS011;11491;41.942;24.220;2023-05-10T07:29:34;14.25;;;10.68;;
22648;SDS011;11491;41.942;24.220;2023-05-10T07:32:01;17.35;;;13.55;;
22648;SDS011;11491;41.942;24.220;2023-05-10T07:34:28;16.25;;;12.35;;
22648;SDS011;11491;41.942;24.220;2023-05-10T07:36:55;15.27;;;11.27;;
22648;SDS011;11491;41.942;24.220;2023-05-10T07:39:25;22.85;;;19.80;;
22648;SDS011;11491;41.942;24.220;2023-05-10T07:41:52;26.65;;;22.23;;
22648;SDS011;11491;41.942;24.220;2023-05-10T07:44:18;20.48;;;15.18;;
22648;SDS011;11491;41.942;24.220;2023-05-10T07:46:49;35.28;;;28.98;;
22648;SDS011;11491;41.942;24.220;2023-05-10T07:49:17;20.05;;;16.60;;
22648;SDS011;11491;41.942;24.220;2023-05-10T07:51:43;17.13;;;14.55;;
22648;SDS011;11491;41.942;24.220;2023-05-10T07:54:10;37.13;;;27.55;;
22648;SDS011;11491;41.942;24.220;2023-05-10T07:56:37;29.25;;;22.42;;
22648;SDS011;11491;41.942;24.220;2023-05-10T07:59:05;15.95;;;11.82;;
22648;SDS011;11491;41.942;24.220;2023-05-10T08:01:32;19.38;;;15.48;;
22648;SDS011;11491;41.942;24.220;2023-05-10T08:04:04;31.40;;;24.40;;
22648;SDS011;11491;41.942;24.220;2023-05-10T08:06:32;38.38;;;24.98;;
22648;SDS011;11491;41.942;24.220;2023-05-10T08:08:59;31.88;;;22.30;;
22648;SDS011;11491;41.942;24.220;2023-05-10T08:11:26;19.80;;;14.93;;
22648;SDS011;11491;41.942;24.220;2023-05-10T08:13:53;31.40;;;22.88;;
22648;SDS011;11491;41.942;24.220;2023-05-10T08:16:20;22.80;;;19.10;;
22648;SDS011;11491;41.942;24.220;2023-05-10T08:18:47;45.95;;;35.60;;
22648;SDS011;11491;41.942;24.220;2023-05-10T08:21:15;30.13;;;24.65;;
22648;SDS011;11491;41.942;24.220;2023-05-10T08:23:42;21.88;;;15.23;;
22648;SDS011;11491;41.942;24.220;2023-05-10T08:26:09;30.55;;;22.15;;
22648;SDS011;11491;41.942;24.220;2023-05-10T08:28:36;30.58;;;22.25;;
22648;SDS011;11491;41.942;24.220;2023-05-10T08:31:03;55.45;;;37.15;;
22648;SDS011;11491;41.942;24.220;2023-05-10T08:33:30;35.58;;;22.73;;
22648;SDS011;11491;41.942;24.220;2023-05-10T08:35:57;47.00;;;30.63;;
22648;SDS011;11491;41.942;24.220;2023-05-10T08:38:25;112.15;;;72.63;;
22648;SDS011;11491;41.942;24.220;2023-05-10T08:40:53;36.10;;;24.60;;
22648;SDS011;11491;41.942;24.220;2023-05-10T08:43:22;41.55;;;26.88;;
22648;SDS011;11491;41.942;24.220;2023-05-10T08:45:53;48.50;;;31.55;;
22648;SDS011;11491;41.942;24.220;2023-05-10T08:48:22;54.53;;;33.55;;
22648;SDS011;11491;41.942;24.220;2023-05-10T08:50:51;89.70;;;38.67;;
22648;SDS011;11491;41.942;24.220;2023-05-10T08:53:19;89.18;;;38.67;;
22648;SDS011;11491;41.942;24.220;2023-05-10T08:55:48;89.40;;;32.58;;
22648;SDS011;11491;41.942;24.220;2023-05-10T08:58:16;141.52;;;23.30;;
22648;SDS011;11491;41.942;24.220;2023-05-10T09:00:44;80.80;;;44.05;;
22648;SDS011;11491;41.942;24.220;2023-05-10T09:03:13;80.97;;;40.15;;
22648;SDS011;11491;41.942;24.220;2023-05-10T09:05:40;107.05;;;44.70;;
22648;SDS011;11491;41.942;24.220;2023-05-10T09:08:07;227.07;;;37.35;;
22648;SDS011;11491;41.942;24.220;2023-05-10T09:10:35;155.15;;;37.17;;
22648;SDS011;11491;41.942;24.220;2023-05-10T09:13:04;169.30;;;35.72;;
22648;SDS011;11491;41.942;24.220;2023-05-10T09:15:31;202.70;;;38.05;;
22648;SDS011;11491;41.942;24.220;2023-05-10T09:17:58;284.60;;;34.72;;
22648;SDS011;11491;41.942;24.220;2023-05-10T09:20:27;405.35;;;68.53;;
22648;SDS011;11491;41.942;24.220;2023-05-10T09:22:54;144.88;;;37.25;;
22648;SDS011;11491;41.942;24.220;2023-05-10T09:25:20;363.75;;;54.53;;
22648;SDS011;11491;41.942;24.220;2023-05-10T09:27:47;214.45;;;35.20;;
22648;SDS011;11491;41.942;24.220;2023-05-10T09:30:17;230.73;;;67.03;;
22648;SDS011;11491;41.942;24.220;2023-05-10T09:32:49;185.15;;;52.08;;
22648;SDS011;11491;41.942;24.220;2023-05-10T09:35:17;375.58;;;62.95;;
22648;SDS011;11491;41.942;24.220;2023-05-10T09:37:46;133.75;;;50.50;;
22648;SDS011;11491;41.942;24.220;2023-05-10T09:40:15;343.58;;;50.53;;
22648;SDS011;11491;41.942;24.220;2023-05-10T09:42:42;555.85;;;87.10;;
22648;SDS011;11491;41.942;24.220;2023-05-10T09:45:19;613.67;;;79.95;;
22648;SDS011;11491;41.942;24.220;2023-05-10T09:47:46;359.90;;;53.63;;
22648;SDS011;11491;41.942;24.220;2023-05-10T09:50:13;347.88;;;52.17;;
22648;SDS011;11491;41.942;24.220;2023-05-10T09:52:46;617.10;;;66.60;;
22648;SDS011;11491;41.942;24.220;2023-05-10T09:55:15;640.45;;;79.38;;
22648;SDS011;11491;41.942;24.220;2023-05-10T09:57:42;343.95;;;52.65;;
22648;SDS011;11491;41.942;24.220;2023-05-10T10:00:09;470.65;;;57.95;;
22648;SDS011;11491;41.942;24.220;2023-05-10T10:02:44;320.27;;;48.45;;
22648;SDS011;11491;41.942;24.220;2023-05-10T10:05:11;171.57;;;43.05;;
22648;SDS011;11491;41.942;24.220;2023-05-10T10:07:38;125.22;;;34.50;;
22648;SDS011;11491;41.942;24.220;2023-05-10T10:10:06;274.05;;;77.43;;
22648;SDS011;11491;41.942;24.220;2023-05-10T10:12:36;290.90;;;47.28;;
22648;SDS011;11491;41.942;24.220;2023-05-10T10:15:04;334.90;;;57.72;;
22648;SDS011;11491;41.942;24.220;2023-05-10T10:17:31;500.45;;;57.72;;
22648;SDS011;11491;41.942;24.220;2023-05-10T10:20:03;716.63;;;64.68;;
22648;SDS011;11491;41.942;24.220;2023-05-10T10:22:30;463.50;;;49.75;;
22648;SDS011;11491;41.942;24.220;2023-05-10T10:24:57;374.10;;;56.25;;
22648;SDS011;11491;41.942;24.220;2023-05-10T10:27:26;451.17;;;66.55;;
22648;SDS011;11491;41.942;24.220;2023-05-10T10:30:02;598.47;;;72.40;;
22648;SDS011;11491;41.942;24.220;2023-05-10T10:32:38;300.40;;;64.53;;
22648;SDS011;11491;41.942;24.220;2023-05-10T10:35:19;801.20;;;87.95;;
22648;SDS011;11491;41.942;24.220;2023-05-10T10:37:47;401.27;;;61.95;;
22648;SDS011;11491;41.942;24.220;2023-05-10T10:40:22;746.75;;;69.57;;
22648;SDS011;11491;41.942;24.220;2023-05-10T10:42:51;509.35;;;71.07;;
22648;SDS011;11491;41.942;24.220;2023-05-10T10:45:19;181.57;;;54.72;;
22648;SDS011;11491;41.942;24.220;2023-05-10T10:47:46;225.35;;;53.65;;
22648;SDS011;11491;41.942;24.220;2023-05-10T10:50:13;380.38;;;64.85;;
22648;SDS011;11491;41.942;24.220;2023-05-10T10:52:42;169.57;;;50.33;;
22648;SDS011;11491;41.942;24.220;2023-05-10T10:55:10;231.07;;;49.28;;
22648;SDS011;11491;41.942;24.220;2023-05-10T10:57:42;121.90;;;44.28;;
22648;SDS011;11491;41.942;24.220;2023-05-10T11:00:21;103.13;;;53.30;;
22648;SDS011;11491;41.942;24.220;2023-05-10T11:02:56;185.88;;;58.25;;
22648;SDS011;11491;41.942;24.220;2023-05-10T11:05:25;288.77;;;51.67;;
22648;SDS011;11491;41.942;24.220;2023-05-10T11:07:57;188.30;;;36.20;;
22648;SDS011;11491;41.942;24.220;2023-05-10T11:10:25;245.30;;;54.45;;
22648;SDS011;11491;41.942;24.220;2023-05-10T11:12:58;236.32;;;55.25;;
22648;SDS011;11491;41.942;24.220;2023-05-10T11:15:30;197.77;;;36.08;;
22648;SDS011;11491;41.942;24.220;2023-05-10T11:17:57;82.05;;;39.10;;
22648;SDS011;11491;41.942;24.220;2023-05-10T11:20:27;226.27;;;47.33;;
22648;SDS011;11491;41.942;24.220;2023-05-10T11:23:10;105.35;;;37.45;;
22648;SDS011;11491;41.942;24.220;2023-05-10T11:25:41;134.98;;;68.38;;
22648;SDS011;11491;41.942;24.220;2023-05-10T11:28:09;214.05;;;60.88;;
22648;SDS011;11491;41.942;24.220;2023-05-10T11:30:36;340.48;;;60.28;;
22648;SDS011;11491;41.942;24.220;2023-05-10T11:33:04;191.00;;;60.28;;
22648;SDS011;11491;41.942;24.220;2023-05-10T11:35:31;123.18;;;61.53;;
22648;SDS011;11491;41.942;24.220;2023-05-10T11:38:06;167.18;;;87.68;;
22648;SDS011;11491;41.942;24.220;2023-05-10T11:40:33;163.95;;;83.65;;
22648;SDS011;11491;41.942;24.220;2023-05-10T11:43:00;370.42;;;98.45;;
22648;SDS011;11491;41.942;24.220;2023-05-10T11:45:27;272.33;;;57.08;;
22648;SDS011;11491;41.942;24.220;2023-05-10T11:47:54;179.35;;;67.22;;
22648;SDS011;11491;41.942;24.220;2023-05-10T11:50:21;155.48;;;52.28;;
22648;SDS011;11491;41.942;24.220;2023-05-10T11:52:50;139.85;;;41.38;;
22648;SDS011;11491;41.942;24.220;2023-05-10T11:55:19;355.50;;;62.20;;
22648;SDS011;11491;41.942;24.220;2023-05-10T11:57:46;140.57;;;52.28;;
22648;SDS011;11491;41.942;24.220;2023-05-10T12:00:13;382.35;;;59.47;;
22648;SDS011;11491;41.942;24.220;2023-05-10T12:02:40;165.13;;;53.03;;
22648;SDS011;11491;41.942;24.220;2023-05-10T12:05:08;136.55;;;49.08;;
22648;SDS011;11491;41.942;24.220;2023-05-10T12:07:35;112.57;;;45.22;;
22648;SDS011;11491;41.942;24.220;2023-05-10T12:10:06;88.18;;;42.45;;
22648;SDS011;11491;41.942;24.220;2023-05-10T12:12:39;127.78;;;46.00;;
22648;SDS011;11491;41.942;24.220;2023-05-10T12:15:10;85.53;;;60.13;;
22648;SDS011;11491;41.942;24.220;2023-05-10T12:17:38;62.70;;;37.33;;
22648;SDS011;11491;41.942;24.220;2023-05-10T12:20:18;95.80;;;46.60;;
22648;SDS011;11491;41.942;24.220;2023-05-10T12:22:47;85.22;;;53.17;;
22648;SDS011;11491;41.942;24.220;2023-05-10T12:25:16;200.75;;;109.80;;
22648;SDS011;11491;41.942;24.220;2023-05-10T12:27:49;78.10;;;51.25;;
22648;SDS011;11491;41.942;24.220;2023-05-10T12:30:21;94.18;;;44.05;;
22648;SDS011;11491;41.942;24.220;2023-05-10T12:32:48;59.97;;;36.60;;
22648;SDS011;11491;41.942;24.220;2023-05-10T12:35:15;101.63;;;42.47;;
22648;SDS011;11491;41.942;24.220;2023-05-10T12:37:42;68.63;;;44.67;;
22648;SDS011;11491;41.942;24.220;2023-05-10T12:40:09;63.05;;;41.17;;
22648;SDS011;11491;41.942;24.220;2023-05-10T12:42:37;47.72;;;25.13;;
22648;SDS011;11491;41.942;24.220;2023-05-10T12:45:07;47.58;;;31.20;;
22648;SDS011;11491;41.942;24.220;2023-05-10T12:47:34;83.35;;;54.20;;
22648;SDS011;11491;41.942;24.220;2023-05-10T12:50:01;68.43;;;48.85;;
22648;SDS011;11491;41.942;24.220;2023-05-10T12:52:29;63.15;;;41.70;;
22648;SDS011;11491;41.942;24.220;2023-05-10T12:54:57;53.72;;;36.47;;
22648;SDS011;11491;41.942;24.220;2023-05-10T12:57:24;67.70;;;47.65;;
22648;SDS011;11491;41.942;24.220;2023-05-10T12:59:51;56.50;;;38.75;;
22648;SDS011;11491;41.942;24.220;2023-05-10T13:02:19;50.78;;;34.20;;
22648;SDS011;11491;41.942;24.220;2023-05-10T13:04:48;65.00;;;43.95;;
22648;SDS011;11491;41.942;24.220;2023-05-10T13:07:15;66.00;;;45.53;;
22648;SDS011;11491;41.942;24.220;2023-05-10T13:09:42;61.28;;;43.80;;
22648;SDS011;11491;41.942;24.220;2023-05-10T13:12:08;112.90;;;80.45;;
22648;SDS011;11491;41.942;24.220;2023-05-10T13:14:35;55.08;;;36.38;;
22648;SDS011;11491;41.942;24.220;2023-05-10T13:17:02;66.10;;;45.28;;
22648;SDS011;11491;41.942;24.220;2023-05-10T13:19:30;43.53;;;30.02;;
22648;SDS011;11491;41.942;24.220;2023-05-10T13:21:57;51.25;;;35.50;;
22648;SDS011;11491;41.942;24.220;2023-05-10T13:24:24;47.42;;;35.50;;
22648;SDS011;11491;41.942;24.220;2023-05-10T13:26:51;48.53;;;33.45;;
22648;SDS011;11491;41.942;24.220;2023-05-10T13:29:17;50.63;;;34.17;;
22648;SDS011;11491;41.942;24.220;2023-05-10T13:31:46;65.07;;;44.70;;
22648;SDS011;11491;41.942;24.220;2023-05-10T13:34:12;47.08;;;34.42;;
22648;SDS011;11491;41.942;24.220;2023-05-10T13:36:40;59.72;;;43.35;;
22648;SDS011;11491;41.942;24.220;2023-05-10T13:39:07;51.90;;;37.97;;
22648;SDS011;11491;41.942;24.220;2023-05-10T13:41:34;81.72;;;58.47;;
22648;SDS011;11491;41.942;24.220;2023-05-10T13:44:01;81.65;;;54.67;;
22648;SDS011;11491;41.942;24.220;2023-05-10T13:46:28;103.55;;;65.00;;
22648;SDS011;11491;41.942;24.220;2023-05-10T13:48:55;100.82;;;61.60;;
22648;SDS011;11491;41.942;24.220;2023-05-10T13:51:22;87.95;;;58.33;;
22648;SDS011;11491;41.942;24.220;2023-05-10T13:53:51;77.97;;;53.63;;
22648;SDS011;11491;41.942;24.220;2023-05-10T13:56:17;63.67;;;44.67;;
22648;SDS011;11491;41.942;24.220;2023-05-10T13:58:44;83.53;;;56.22;;
22648;SDS011;11491;41.942;24.220;2023-05-10T14:01:11;71.85;;;51.58;;
22648;SDS011;11491;41.942;24.220;2023-05-10T14:03:38;86.10;;;64.57;;
22648;SDS011;11491;41.942;24.220;2023-05-10T14:06:05;69.88;;;59.22;;
22648;SDS011;11491;41.942;24.220;2023-05-10T14:08:32;71.55;;;53.50;;
22648;SDS011;11491;41.942;24.220;2023-05-10T14:11:02;47.83;;;35.97;;
22648;SDS011;11491;41.942;24.220;2023-05-10T14:13:29;50.47;;;35.55;;
22648;SDS011;11491;41.942;24.220;2023-05-10T14:15:56;40.20;;;29.20;;